sensor_id;sensor_type;location;lat;lon;timestamp;P1;durP1;ratioP1;P2;durP2;ratioP2
3613;SDS011;1821;50.936;6.854;2023-02-01T00:00:38;14.43;;;8.15;;
3613;SDS011;1821;50.936;6.854;2023-02-01T00:01:20;15.25;;;8.00;;
3613;SDS011;1821;50.936;6.854;2023-02-01T00:02:02;13.18;;;7.70;;
3613;SDS011;1821;50.936;6.854;2023-02-01T00:02:44;14.77;;;7.78;;
3613;SDS011;1821;50.936;6.854;2023-02-01T00:03:26;15.55;;;7.90;;
3613;SDS011;1821;50.936;6.854;2023-02-01T00:04:10;19.75;;;7.82;;
3613;SDS011;1821;50.936;6.854;2023-02-01T00:04:52;15.82;;;7.78;;
3613;SDS011;1821;50.936;6.854;2023-02-01T00:05:34;18.73;;;7.93;;
3613;SDS011;1821;50.936;6.854;2023-02-01T00:06:16;19.00;;;8.80;;
3613;SDS011;1821;50.936;6.854;2023-02-01T00:06:58;12.65;;;8.32;;
3613;SDS011;1821;50.936;6.854;2023-02-01T00:07:40;15.15;;;8.07;;
3613;SDS011;1821;50.936;6.854;2023-02-01T00:08:22;12.93;;;8.40;;
3613;SDS011;1821;50.936;6.854;2023-02-01T00:09:03;17.90;;;9.60;;
3613;SDS011;1821;50.936;6.854;2023-02-01T00:09:45;18.95;;;9.10;;
3613;SDS011;1821;50.936;6.854;2023-02-01T00:10:27;14.57;;;8.30;;
3613;SDS011;1821;50.936;6.854;2023-02-01T00:11:11;15.63;;;8.45;;
3613;SDS011;1821;50.936;6.854;2023-02-01T00:11:53;19.17;;;9.00;;
3613;SDS011;1821;50.936;6.854;2023-02-01T00:12:36;14.15;;;9.00;;
3613;SDS011;1821;50.936;6.854;2023-02-01T00:13:18;14.40;;;8.77;;
3613;SDS011;1821;50.936;6.854;2023-02-01T00:14:00;15.90;;;9.02;;
3613;SDS011;1821;50.936;6.854;2023-02-01T00:14:42;12.65;;;8.27;;
3613;SDS011;1821;50.936;6.854;2023-02-01T00:15:24;12.88;;;8.32;;
3613;SDS011;1821;50.936;6.854;2023-02-01T00:16:06;14.25;;;8.20;;
3613;SDS011;1821;50.936;6.854;2023-02-01T00:16:50;17.10;;;8.60;;
3613;SDS011;1821;50.936;6.854;2023-02-01T00:17:32;16.35;;;8.77;;
3613;SDS011;1821;50.936;6.854;2023-02-01T00:18:14;17.75;;;8.95;;
3613;SDS011;1821;50.936;6.854;2023-02-01T00:18:57;13.27;;;8.25;;
3613;SDS011;1821;50.936;6.854;2023-02-01T00:19:44;15.65;;;7.85;;
3613;SDS011;1821;50.936;6.854;2023-02-01T00:20:25;16.60;;;8.20;;
3613;SDS011;1821;50.936;6.854;2023-02-01T00:21:07;18.25;;;8.00;;
3613;SDS011;1821;50.936;6.854;2023-02-01T00:21:51;15.85;;;8.80;;
3613;SDS011;1821;50.936;6.854;2023-02-01T00:22:33;18.02;;;9.23;;
3613;SDS011;1821;50.936;6.854;2023-02-01T00:23:15;15.25;;;8.80;;
3613;SDS011;1821;50.936;6.854;2023-02-01T00:23:57;16.08;;;8.30;;
3613;SDS011;1821;50.936;6.854;2023-02-01T00:24:39;16.65;;;8.63;;
3613;SDS011;1821;50.936;6.854;2023-02-01T00:25:21;15.23;;;8.60;;
3613;SDS011;1821;50.936;6.854;2023-02-01T00:26:03;14.52;;;8.38;;
3613;SDS011;1821;50.936;6.854;2023-02-01T00:26:48;16.95;;;8.07;;
3613;SDS011;1821;50.936;6.854;2023-02-01T00:27:32;14.10;;;7.60;;
3613;SDS011;1821;50.936;6.854;2023-02-01T00:28:14;14.05;;;7.68;;
3613;SDS011;1821;50.936;6.854;2023-02-01T00:28:57;16.20;;;8.13;;
3613;SDS011;1821;50.936;6.854;2023-02-01T00:29:39;15.05;;;7.18;;
3613;SDS011;1821;50.936;6.854;2023-02-01T00:30:21;14.70;;;7.40;;
3613;SDS011;1821;50.936;6.854;2023-02-01T00:31:03;14.13;;;7.13;;
3613;SDS011;1821;50.936;6.854;2023-02-01T00:31:46;11.43;;;7.70;;
3613;SDS011;1821;50.936;6.854;2023-02-01T00:32:30;13.00;;;7.43;;
3613;SDS011;1821;50.936;6.854;2023-02-01T00:33:13;16.67;;;6.90;;
3613;SDS011;1821;50.936;6.854;2023-02-01T00:33:54;16.77;;;6.75;;
3613;SDS011;1821;50.936;6.854;2023-02-01T00:34:36;16.48;;;7.20;;
3613;SDS011;1821;50.936;6.854;2023-02-01T00:35:18;16.58;;;7.45;;
3613;SDS011;1821;50.936;6.854;2023-02-01T00:36:04;14.82;;;7.25;;
3613;SDS011;1821;50.936;6.854;2023-02-01T00:36:47;17.58;;;7.10;;
3613;SDS011;1821;50.936;6.854;2023-02-01T00:37:29;16.35;;;7.20;;
3613;SDS011;1821;50.936;6.854;2023-02-01T00:38:11;13.27;;;7.03;;
3613;SDS011;1821;50.936;6.854;2023-02-01T00:38:53;12.60;;;6.85;;
3613;SDS011;1821;50.936;6.854;2023-02-01T00:39:35;11.52;;;5.80;;
3613;SDS011;1821;50.936;6.854;2023-02-01T00:40:17;15.52;;;6.80;;
3613;SDS011;1821;50.936;6.854;2023-02-01T00:41:18;13.57;;;6.10;;
3613;SDS011;1821;50.936;6.854;2023-02-01T00:42:01;14.68;;;6.40;;
3613;SDS011;1821;50.936;6.854;2023-02-01T00:42:43;17.90;;;6.43;;
3613;SDS011;1821;50.936;6.854;2023-02-01T00:43:25;22.00;;;6.65;;
3613;SDS011;1821;50.936;6.854;2023-02-01T00:44:07;20.10;;;7.47;;
3613;SDS011;1821;50.936;6.854;2023-02-01T00:44:49;15.60;;;6.28;;
3613;SDS011;1821;50.936;6.854;2023-02-01T00:45:31;14.93;;;5.95;;
3613;SDS011;1821;50.936;6.854;2023-02-01T00:46:13;20.88;;;6.75;;
3613;SDS011;1821;50.936;6.854;2023-02-01T00:46:57;11.25;;;5.95;;
3613;SDS011;1821;50.936;6.854;2023-02-01T00:47:38;11.80;;;5.50;;
3613;SDS011;1821;50.936;6.854;2023-02-01T00:48:20;17.40;;;5.50;;
3613;SDS011;1821;50.936;6.854;2023-02-01T00:49:02;16.42;;;5.68;;
3613;SDS011;1821;50.936;6.854;2023-02-01T00:49:45;12.90;;;5.30;;
3613;SDS011;1821;50.936;6.854;2023-02-01T00:50:26;11.23;;;5.63;;
3613;SDS011;1821;50.936;6.854;2023-02-01T00:51:10;16.83;;;6.43;;
3613;SDS011;1821;50.936;6.854;2023-02-01T00:51:54;16.92;;;6.03;;
3613;SDS011;1821;50.936;6.854;2023-02-01T00:52:36;12.43;;;5.47;;
3613;SDS011;1821;50.936;6.854;2023-02-01T00:53:18;12.70;;;5.40;;
3613;SDS011;1821;50.936;6.854;2023-02-01T00:54:00;15.65;;;5.60;;
3613;SDS011;1821;50.936;6.854;2023-02-01T00:54:42;12.82;;;5.45;;
3613;SDS011;1821;50.936;6.854;2023-02-01T00:55:24;12.90;;;5.53;;
3613;SDS011;1821;50.936;6.854;2023-02-01T00:56:05;13.10;;;5.68;;
3613;SDS011;1821;50.936;6.854;2023-02-01T00:56:48;10.88;;;6.30;;
3613;SDS011;1821;50.936;6.854;2023-02-01T00:57:30;11.18;;;5.53;;
3613;SDS011;1821;50.936;6.854;2023-02-01T00:58:12;15.70;;;5.75;;
3613;SDS011;1821;50.936;6.854;2023-02-01T00:58:54;10.38;;;6.18;;
3613;SDS011;1821;50.936;6.854;2023-02-01T00:59:36;13.98;;;5.75;;
3613;SDS011;1821;50.936;6.854;2023-02-01T01:00:18;11.93;;;4.70;;
3613;SDS011;1821;50.936;6.854;2023-02-01T01:01:45;15.30;;;5.00;;
3613;SDS011;1821;50.936;6.854;2023-02-01T01:02:27;14.38;;;5.50;;
3613;SDS011;1821;50.936;6.854;2023-02-01T01:03:09;13.93;;;5.85;;
3613;SDS011;1821;50.936;6.854;2023-02-01T01:04:00;11.50;;;5.25;;
3613;SDS011;1821;50.936;6.854;2023-02-01T01:04:42;13.13;;;5.43;;
3613;SDS011;1821;50.936;6.854;2023-02-01T01:05:26;12.43;;;4.85;;
3613;SDS011;1821;50.936;6.854;2023-02-01T01:06:14;15.00;;;5.13;;
3613;SDS011;1821;50.936;6.854;2023-02-01T01:06:58;15.07;;;4.97;;
3613;SDS011;1821;50.936;6.854;2023-02-01T01:07:39;10.63;;;4.80;;
3613;SDS011;1821;50.936;6.854;2023-02-01T01:08:22;10.88;;;4.97;;
3613;SDS011;1821;50.936;6.854;2023-02-01T01:09:05;14.00;;;5.65;;
3613;SDS011;1821;50.936;6.854;2023-02-01T01:09:48;12.85;;;5.25;;
3613;SDS011;1821;50.936;6.854;2023-02-01T01:10:30;13.10;;;5.00;;
3613;SDS011;1821;50.936;6.854;2023-02-01T01:11:16;13.88;;;4.90;;
3613;SDS011;1821;50.936;6.854;2023-02-01T01:11:59;17.58;;;5.97;;
3613;SDS011;1821;50.936;6.854;2023-02-01T01:12:43;13.38;;;4.85;;
3613;SDS011;1821;50.936;6.854;2023-02-01T01:13:25;11.73;;;4.50;;
3613;SDS011;1821;50.936;6.854;2023-02-01T01:14:07;10.80;;;5.20;;
3613;SDS011;1821;50.936;6.854;2023-02-01T01:14:49;13.52;;;5.50;;
3613;SDS011;1821;50.936;6.854;2023-02-01T01:15:34;13.73;;;5.53;;
3613;SDS011;1821;50.936;6.854;2023-02-01T01:16:17;7.10;;;4.00;;
3613;SDS011;1821;50.936;6.854;2023-02-01T01:17:00;13.20;;;4.70;;
3613;SDS011;1821;50.936;6.854;2023-02-01T01:17:41;11.65;;;4.97;;
3613;SDS011;1821;50.936;6.854;2023-02-01T01:18:24;13.13;;;4.88;;
3613;SDS011;1821;50.936;6.854;2023-02-01T01:19:05;11.15;;;4.80;;
3613;SDS011;1821;50.936;6.854;2023-02-01T01:19:47;13.68;;;5.10;;
3613;SDS011;1821;50.936;6.854;2023-02-01T01:20:29;17.00;;;5.90;;
3613;SDS011;1821;50.936;6.854;2023-02-01T01:21:11;14.05;;;5.28;;
3613;SDS011;1821;50.936;6.854;2023-02-01T01:21:54;16.95;;;4.93;;
3613;SDS011;1821;50.936;6.854;2023-02-01T01:22:36;11.40;;;4.72;;
3613;SDS011;1821;50.936;6.854;2023-02-01T01:23:18;12.82;;;4.60;;
3613;SDS011;1821;50.936;6.854;2023-02-01T01:24:00;11.23;;;4.60;;
3613;SDS011;1821;50.936;6.854;2023-02-01T01:24:41;11.32;;;4.60;;
3613;SDS011;1821;50.936;6.854;2023-02-01T01:25:23;11.85;;;4.50;;
3613;SDS011;1821;50.936;6.854;2023-02-01T01:26:15;12.73;;;5.07;;
3613;SDS011;1821;50.936;6.854;2023-02-01T01:26:58;13.70;;;4.70;;
3613;SDS011;1821;50.936;6.854;2023-02-01T01:27:40;13.50;;;4.32;;
3613;SDS011;1821;50.936;6.854;2023-02-01T01:28:22;14.00;;;4.75;;
3613;SDS011;1821;50.936;6.854;2023-02-01T01:29:04;13.77;;;4.13;;
3613;SDS011;1821;50.936;6.854;2023-02-01T01:29:45;12.80;;;4.80;;
3613;SDS011;1821;50.936;6.854;2023-02-01T01:30:27;13.63;;;4.63;;
3613;SDS011;1821;50.936;6.854;2023-02-01T01:31:13;11.10;;;5.00;;
3613;SDS011;1821;50.936;6.854;2023-02-01T01:31:56;10.80;;;4.78;;
3613;SDS011;1821;50.936;6.854;2023-02-01T01:32:38;10.32;;;4.85;;
3613;SDS011;1821;50.936;6.854;2023-02-01T01:33:20;11.90;;;5.60;;
3613;SDS011;1821;50.936;6.854;2023-02-01T01:34:01;10.73;;;5.00;;
3613;SDS011;1821;50.936;6.854;2023-02-01T01:34:43;13.95;;;4.70;;
3613;SDS011;1821;50.936;6.854;2023-02-01T01:35:25;12.35;;;4.70;;
3613;SDS011;1821;50.936;6.854;2023-02-01T01:36:07;12.07;;;4.60;;
3613;SDS011;1821;50.936;6.854;2023-02-01T01:36:52;15.23;;;4.85;;
3613;SDS011;1821;50.936;6.854;2023-02-01T01:37:34;17.23;;;4.90;;
3613;SDS011;1821;50.936;6.854;2023-02-01T01:38:16;16.15;;;4.57;;
3613;SDS011;1821;50.936;6.854;2023-02-01T01:38:58;11.60;;;4.45;;
3613;SDS011;1821;50.936;6.854;2023-02-01T01:39:39;13.38;;;4.70;;
3613;SDS011;1821;50.936;6.854;2023-02-01T01:40:21;10.40;;;4.20;;
3613;SDS011;1821;50.936;6.854;2023-02-01T01:41:03;14.57;;;4.47;;
3613;SDS011;1821;50.936;6.854;2023-02-01T01:41:45;8.63;;;3.95;;
3613;SDS011;1821;50.936;6.854;2023-02-01T01:42:27;12.55;;;4.18;;
3613;SDS011;1821;50.936;6.854;2023-02-01T01:43:18;14.30;;;4.88;;
3613;SDS011;1821;50.936;6.854;2023-02-01T01:44:04;16.13;;;4.97;;
3613;SDS011;1821;50.936;6.854;2023-02-01T01:44:55;13.73;;;4.30;;
3613;SDS011;1821;50.936;6.854;2023-02-01T01:45:45;14.20;;;5.00;;
3613;SDS011;1821;50.936;6.854;2023-02-01T01:47:12;11.05;;;4.35;;
3613;SDS011;1821;50.936;6.854;2023-02-01T01:47:57;13.50;;;5.28;;
3613;SDS011;1821;50.936;6.854;2023-02-01T01:48:40;15.27;;;5.50;;
3613;SDS011;1821;50.936;6.854;2023-02-01T01:49:23;13.55;;;4.20;;
3613;SDS011;1821;50.936;6.854;2023-02-01T01:50:07;10.32;;;3.95;;
3613;SDS011;1821;50.936;6.854;2023-02-01T01:50:52;16.27;;;4.70;;
3613;SDS011;1821;50.936;6.854;2023-02-01T01:51:40;13.82;;;4.10;;
3613;SDS011;1821;50.936;6.854;2023-02-01T01:52:30;12.90;;;5.10;;
3613;SDS011;1821;50.936;6.854;2023-02-01T01:53:12;13.73;;;4.50;;
3613;SDS011;1821;50.936;6.854;2023-02-01T01:54:03;15.70;;;4.40;;
3613;SDS011;1821;50.936;6.854;2023-02-01T01:55:06;13.23;;;4.18;;
3613;SDS011;1821;50.936;6.854;2023-02-01T01:55:49;15.00;;;4.50;;
3613;SDS011;1821;50.936;6.854;2023-02-01T01:56:31;12.40;;;4.80;;
3613;SDS011;1821;50.936;6.854;2023-02-01T01:57:19;12.40;;;4.93;;
3613;SDS011;1821;50.936;6.854;2023-02-01T01:58:17;12.70;;;5.10;;
3613;SDS011;1821;50.936;6.854;2023-02-01T01:59:00;10.80;;;4.25;;
3613;SDS011;1821;50.936;6.854;2023-02-01T01:59:45;13.10;;;4.95;;
3613;SDS011;1821;50.936;6.854;2023-02-01T02:00:31;9.38;;;4.95;;
3613;SDS011;1821;50.936;6.854;2023-02-01T02:01:14;12.25;;;4.60;;
3613;SDS011;1821;50.936;6.854;2023-02-01T02:01:56;13.60;;;4.38;;
3613;SDS011;1821;50.936;6.854;2023-02-01T02:02:38;16.13;;;4.47;;
3613;SDS011;1821;50.936;6.854;2023-02-01T02:03:26;15.55;;;5.35;;
3613;SDS011;1821;50.936;6.854;2023-02-01T02:04:15;11.40;;;4.90;;
3613;SDS011;1821;50.936;6.854;2023-02-01T02:04:57;13.38;;;4.80;;
3613;SDS011;1821;50.936;6.854;2023-02-01T02:05:39;12.07;;;4.45;;
3613;SDS011;1821;50.936;6.854;2023-02-01T02:07:14;14.68;;;5.10;;
3613;SDS011;1821;50.936;6.854;2023-02-01T02:08:00;15.65;;;4.95;;
3613;SDS011;1821;50.936;6.854;2023-02-01T02:08:42;15.18;;;4.82;;
3613;SDS011;1821;50.936;6.854;2023-02-01T02:09:24;12.98;;;4.20;;
3613;SDS011;1821;50.936;6.854;2023-02-01T02:10:06;18.08;;;5.10;;
3613;SDS011;1821;50.936;6.854;2023-02-01T02:10:51;12.88;;;4.38;;
3613;SDS011;1821;50.936;6.854;2023-02-01T02:11:43;13.00;;;5.10;;
3613;SDS011;1821;50.936;6.854;2023-02-01T02:12:25;14.98;;;4.80;;
3613;SDS011;1821;50.936;6.854;2023-02-01T02:13:07;15.23;;;5.82;;
3613;SDS011;1821;50.936;6.854;2023-02-01T02:13:49;15.32;;;5.50;;
3613;SDS011;1821;50.936;6.854;2023-02-01T02:14:34;16.13;;;5.20;;
3613;SDS011;1821;50.936;6.854;2023-02-01T02:15:17;17.63;;;5.18;;
3613;SDS011;1821;50.936;6.854;2023-02-01T02:18:19;11.00;;;5.22;;
3613;SDS011;1821;50.936;6.854;2023-02-01T02:29:36;12.48;;;5.70;;
3613;SDS011;1821;50.936;6.854;2023-02-01T02:37:03;14.50;;;6.57;;
3613;SDS011;1821;50.936;6.854;2023-02-01T02:38:48;13.27;;;6.72;;
3613;SDS011;1821;50.936;6.854;2023-02-01T02:40:47;15.07;;;5.93;;
3613;SDS011;1821;50.936;6.854;2023-02-01T02:44:20;17.95;;;5.88;;
3613;SDS011;1821;50.936;6.854;2023-02-01T02:46:48;14.10;;;6.10;;
3613;SDS011;1821;50.936;6.854;2023-02-01T02:47:55;10.90;;;5.35;;
3613;SDS011;1821;50.936;6.854;2023-02-01T02:48:45;13.95;;;5.85;;
3613;SDS011;1821;50.936;6.854;2023-02-01T02:49:34;13.48;;;6.38;;
3613;SDS011;1821;50.936;6.854;2023-02-01T02:50:23;15.30;;;6.03;;
3613;SDS011;1821;50.936;6.854;2023-02-01T02:52:56;14.82;;;6.07;;
3613;SDS011;1821;50.936;6.854;2023-02-01T02:54:07;12.23;;;5.97;;
3613;SDS011;1821;50.936;6.854;2023-02-01T02:55:35;21.88;;;6.82;;
3613;SDS011;1821;50.936;6.854;2023-02-01T02:56:20;14.77;;;6.93;;
3613;SDS011;1821;50.936;6.854;2023-02-01T02:57:32;19.83;;;6.60;;
3613;SDS011;1821;50.936;6.854;2023-02-01T02:58:38;14.30;;;6.25;;
3613;SDS011;1821;50.936;6.854;2023-02-01T02:59:39;13.70;;;6.15;;
3613;SDS011;1821;50.936;6.854;2023-02-01T03:00:41;17.33;;;7.05;;
3613;SDS011;1821;50.936;6.854;2023-02-01T03:01:42;12.10;;;5.90;;
3613;SDS011;1821;50.936;6.854;2023-02-01T03:02:44;14.52;;;6.82;;
3613;SDS011;1821;50.936;6.854;2023-02-01T03:03:46;14.30;;;7.07;;
3613;SDS011;1821;50.936;6.854;2023-02-01T03:04:51;13.43;;;6.90;;
3613;SDS011;1821;50.936;6.854;2023-02-01T03:05:39;15.60;;;6.75;;
3613;SDS011;1821;50.936;6.854;2023-02-01T03:06:25;12.18;;;6.10;;
3613;SDS011;1821;50.936;6.854;2023-02-01T03:07:15;10.70;;;6.53;;
3613;SDS011;1821;50.936;6.854;2023-02-01T03:08:33;14.23;;;6.55;;
3613;SDS011;1821;50.936;6.854;2023-02-01T03:09:23;13.60;;;6.53;;
3613;SDS011;1821;50.936;6.854;2023-02-01T03:11:16;15.85;;;6.70;;
3613;SDS011;1821;50.936;6.854;2023-02-01T03:11:59;17.13;;;6.80;;
3613;SDS011;1821;50.936;6.854;2023-02-01T03:13:11;13.70;;;6.60;;
3613;SDS011;1821;50.936;6.854;2023-02-01T03:14:14;16.80;;;6.70;;
3613;SDS011;1821;50.936;6.854;2023-02-01T03:15:00;13.90;;;6.40;;
3613;SDS011;1821;50.936;6.854;2023-02-01T03:15:51;10.52;;;6.05;;
3613;SDS011;1821;50.936;6.854;2023-02-01T03:17:27;12.20;;;6.00;;
3613;SDS011;1821;50.936;6.854;2023-02-01T03:18:23;15.90;;;6.53;;
3613;SDS011;1821;50.936;6.854;2023-02-01T03:19:19;19.45;;;7.10;;
3613;SDS011;1821;50.936;6.854;2023-02-01T03:20:06;17.05;;;6.30;;
3613;SDS011;1821;50.936;6.854;2023-02-01T03:20:52;17.80;;;6.57;;
3613;SDS011;1821;50.936;6.854;2023-02-01T03:21:50;17.52;;;7.20;;
3613;SDS011;1821;50.936;6.854;2023-02-01T03:22:52;16.48;;;6.57;;
3613;SDS011;1821;50.936;6.854;2023-02-01T03:23:36;15.20;;;6.38;;
3613;SDS011;1821;50.936;6.854;2023-02-01T03:24:23;13.63;;;6.50;;
3613;SDS011;1821;50.936;6.854;2023-02-01T03:25:15;15.63;;;7.00;;
3613;SDS011;1821;50.936;6.854;2023-02-01T03:26:04;13.75;;;7.05;;
3613;SDS011;1821;50.936;6.854;2023-02-01T03:26:55;23.15;;;7.35;;
3613;SDS011;1821;50.936;6.854;2023-02-01T03:27:49;15.10;;;6.35;;
3613;SDS011;1821;50.936;6.854;2023-02-01T03:28:43;16.58;;;6.70;;
3613;SDS011;1821;50.936;6.854;2023-02-01T03:29:33;14.13;;;7.68;;
3613;SDS011;1821;50.936;6.854;2023-02-01T03:30:37;14.85;;;7.00;;
3613;SDS011;1821;50.936;6.854;2023-02-01T03:31:23;19.80;;;6.70;;
3613;SDS011;1821;50.936;6.854;2023-02-01T03:32:05;17.20;;;6.70;;
3613;SDS011;1821;50.936;6.854;2023-02-01T03:32:48;13.23;;;6.07;;
3613;SDS011;1821;50.936;6.854;2023-02-01T03:33:40;17.10;;;6.57;;
3613;SDS011;1821;50.936;6.854;2023-02-01T03:34:23;16.25;;;6.80;;
3613;SDS011;1821;50.936;6.854;2023-02-01T03:35:05;18.48;;;6.18;;
3613;SDS011;1821;50.936;6.854;2023-02-01T03:37:30;18.63;;;6.22;;
3613;SDS011;1821;50.936;6.854;2023-02-01T03:39:22;16.05;;;6.70;;
3613;SDS011;1821;50.936;6.854;2023-02-01T03:40:14;16.20;;;6.80;;
3613;SDS011;1821;50.936;6.854;2023-02-01T03:41:01;15.45;;;7.22;;
3613;SDS011;1821;50.936;6.854;2023-02-01T03:41:51;17.08;;;6.72;;
3613;SDS011;1821;50.936;6.854;2023-02-01T03:43:20;13.95;;;5.90;;
3613;SDS011;1821;50.936;6.854;2023-02-01T03:45:07;10.67;;;5.40;;
3613;SDS011;1821;50.936;6.854;2023-02-01T03:45:54;12.23;;;6.00;;
3613;SDS011;1821;50.936;6.854;2023-02-01T03:46:42;11.77;;;5.72;;
3613;SDS011;1821;50.936;6.854;2023-02-01T03:47:35;18.80;;;6.40;;
3613;SDS011;1821;50.936;6.854;2023-02-01T03:48:21;16.00;;;6.35;;
3613;SDS011;1821;50.936;6.854;2023-02-01T03:49:05;14.23;;;6.30;;
3613;SDS011;1821;50.936;6.854;2023-02-01T03:49:51;12.55;;;6.30;;
3613;SDS011;1821;50.936;6.854;2023-02-01T03:50:36;17.63;;;6.45;;
3613;SDS011;1821;50.936;6.854;2023-02-01T03:51:24;15.93;;;6.18;;
3613;SDS011;1821;50.936;6.854;2023-02-01T03:52:08;16.08;;;5.95;;
3613;SDS011;1821;50.936;6.854;2023-02-01T03:53:18;12.27;;;6.30;;
3613;SDS011;1821;50.936;6.854;2023-02-01T03:54:03;13.50;;;6.55;;
3613;SDS011;1821;50.936;6.854;2023-02-01T03:54:50;16.85;;;6.05;;
3613;SDS011;1821;50.936;6.854;2023-02-01T03:55:32;16.33;;;6.05;;
3613;SDS011;1821;50.936;6.854;2023-02-01T03:56:17;16.70;;;6.43;;
3613;SDS011;1821;50.936;6.854;2023-02-01T03:57:03;17.42;;;6.80;;
3613;SDS011;1821;50.936;6.854;2023-02-01T03:57:53;13.82;;;5.30;;
3613;SDS011;1821;50.936;6.854;2023-02-01T03:58:42;14.50;;;6.10;;
3613;SDS011;1821;50.936;6.854;2023-02-01T03:59:41;11.48;;;5.30;;
3613;SDS011;1821;50.936;6.854;2023-02-01T04:00:26;14.10;;;6.30;;
3613;SDS011;1821;50.936;6.854;2023-02-01T04:01:08;14.82;;;5.90;;
3613;SDS011;1821;50.936;6.854;2023-02-01T04:01:50;15.50;;;5.57;;
3613;SDS011;1821;50.936;6.854;2023-02-01T04:02:32;13.35;;;5.60;;
3613;SDS011;1821;50.936;6.854;2023-02-01T04:03:14;12.43;;;5.70;;
3613;SDS011;1821;50.936;6.854;2023-02-01T04:03:56;12.75;;;5.97;;
3613;SDS011;1821;50.936;6.854;2023-02-01T04:04:41;16.38;;;6.50;;
3613;SDS011;1821;50.936;6.854;2023-02-01T04:05:23;21.38;;;5.78;;
3613;SDS011;1821;50.936;6.854;2023-02-01T04:06:05;17.45;;;6.15;;
3613;SDS011;1821;50.936;6.854;2023-02-01T04:06:47;11.88;;;5.72;;
3613;SDS011;1821;50.936;6.854;2023-02-01T04:07:30;17.35;;;6.25;;
3613;SDS011;1821;50.936;6.854;2023-02-01T04:08:13;16.95;;;5.97;;
3613;SDS011;1821;50.936;6.854;2023-02-01T04:08:55;14.18;;;5.50;;
3613;SDS011;1821;50.936;6.854;2023-02-01T04:09:36;14.60;;;5.50;;
3613;SDS011;1821;50.936;6.854;2023-02-01T04:10:20;20.13;;;5.85;;
3613;SDS011;1821;50.936;6.854;2023-02-01T04:11:03;15.30;;;5.80;;
3613;SDS011;1821;50.936;6.854;2023-02-01T04:11:45;14.75;;;6.18;;
3613;SDS011;1821;50.936;6.854;2023-02-01T04:12:26;16.35;;;6.20;;
3613;SDS011;1821;50.936;6.854;2023-02-01T04:13:10;16.48;;;6.20;;
3613;SDS011;1821;50.936;6.854;2023-02-01T04:13:53;14.25;;;5.60;;
3613;SDS011;1821;50.936;6.854;2023-02-01T04:14:34;15.30;;;5.70;;
3613;SDS011;1821;50.936;6.854;2023-02-01T04:15:16;17.85;;;5.95;;
3613;SDS011;1821;50.936;6.854;2023-02-01T04:15:58;20.30;;;5.60;;
3613;SDS011;1821;50.936;6.854;2023-02-01T04:16:40;12.55;;;5.68;;
3613;SDS011;1821;50.936;6.854;2023-02-01T04:17:22;16.30;;;6.50;;
3613;SDS011;1821;50.936;6.854;2023-02-01T04:18:04;15.38;;;5.85;;
3613;SDS011;1821;50.936;6.854;2023-02-01T04:18:46;15.68;;;6.53;;
3613;SDS011;1821;50.936;6.854;2023-02-01T04:19:28;20.10;;;6.75;;
3613;SDS011;1821;50.936;6.854;2023-02-01T04:20:10;15.18;;;6.32;;
3613;SDS011;1821;50.936;6.854;2023-02-01T04:20:52;16.00;;;5.93;;
3613;SDS011;1821;50.936;6.854;2023-02-01T04:21:34;12.82;;;5.93;;
3613;SDS011;1821;50.936;6.854;2023-02-01T04:22:16;14.48;;;6.28;;
3613;SDS011;1821;50.936;6.854;2023-02-01T04:22:57;15.70;;;6.68;;
3613;SDS011;1821;50.936;6.854;2023-02-01T04:23:41;11.02;;;4.70;;
3613;SDS011;1821;50.936;6.854;2023-02-01T04:24:26;15.82;;;5.80;;
3613;SDS011;1821;50.936;6.854;2023-02-01T04:25:07;19.20;;;6.45;;
3613;SDS011;1821;50.936;6.854;2023-02-01T04:25:50;13.60;;;5.90;;
3613;SDS011;1821;50.936;6.854;2023-02-01T04:26:32;11.52;;;5.47;;
3613;SDS011;1821;50.936;6.854;2023-02-01T04:27:13;12.68;;;6.28;;
3613;SDS011;1821;50.936;6.854;2023-02-01T04:27:55;16.80;;;6.60;;
3613;SDS011;1821;50.936;6.854;2023-02-01T04:28:37;13.02;;;6.00;;
3613;SDS011;1821;50.936;6.854;2023-02-01T04:29:19;14.35;;;5.65;;
3613;SDS011;1821;50.936;6.854;2023-02-01T04:30:01;14.48;;;5.78;;
3613;SDS011;1821;50.936;6.854;2023-02-01T04:30:46;16.95;;;5.88;;
3613;SDS011;1821;50.936;6.854;2023-02-01T04:31:28;14.65;;;5.60;;
3613;SDS011;1821;50.936;6.854;2023-02-01T04:32:10;13.68;;;5.30;;
3613;SDS011;1821;50.936;6.854;2023-02-01T04:32:52;19.63;;;6.10;;
3613;SDS011;1821;50.936;6.854;2023-02-01T04:33:34;19.85;;;6.47;;
3613;SDS011;1821;50.936;6.854;2023-02-01T04:34:16;15.38;;;6.63;;
3613;SDS011;1821;50.936;6.854;2023-02-01T04:34:57;14.63;;;6.50;;
3613;SDS011;1821;50.936;6.854;2023-02-01T04:35:39;12.18;;;5.78;;
3613;SDS011;1821;50.936;6.854;2023-02-01T04:36:21;13.98;;;5.75;;
3613;SDS011;1821;50.936;6.854;2023-02-01T04:37:03;16.90;;;5.82;;
3613;SDS011;1821;50.936;6.854;2023-02-01T04:37:45;18.63;;;6.63;;
3613;SDS011;1821;50.936;6.854;2023-02-01T04:38:27;16.15;;;5.57;;
3613;SDS011;1821;50.936;6.854;2023-02-01T04:39:10;17.33;;;5.90;;
3613;SDS011;1821;50.936;6.854;2023-02-01T04:39:52;14.63;;;6.50;;
3613;SDS011;1821;50.936;6.854;2023-02-01T04:40:34;16.42;;;6.28;;
3613;SDS011;1821;50.936;6.854;2023-02-01T04:41:16;13.30;;;5.35;;
3613;SDS011;1821;50.936;6.854;2023-02-01T04:41:59;13.50;;;5.15;;
3613;SDS011;1821;50.936;6.854;2023-02-01T04:42:41;15.82;;;5.20;;
3613;SDS011;1821;50.936;6.854;2023-02-01T04:43:24;14.50;;;5.78;;
3613;SDS011;1821;50.936;6.854;2023-02-01T04:44:06;13.52;;;5.90;;
3613;SDS011;1821;50.936;6.854;2023-02-01T04:44:50;16.23;;;5.40;;
3613;SDS011;1821;50.936;6.854;2023-02-01T04:45:32;13.15;;;4.88;;
3613;SDS011;1821;50.936;6.854;2023-02-01T04:46:14;13.07;;;5.03;;
3613;SDS011;1821;50.936;6.854;2023-02-01T04:46:56;17.65;;;5.15;;
3613;SDS011;1821;50.936;6.854;2023-02-01T04:47:38;16.90;;;5.90;;
3613;SDS011;1821;50.936;6.854;2023-02-01T04:48:20;18.55;;;5.60;;
3613;SDS011;1821;50.936;6.854;2023-02-01T04:49:05;13.77;;;4.80;;
3613;SDS011;1821;50.936;6.854;2023-02-01T04:49:47;12.05;;;5.00;;
3613;SDS011;1821;50.936;6.854;2023-02-01T04:50:31;15.63;;;5.50;;
3613;SDS011;1821;50.936;6.854;2023-02-01T04:51:12;16.58;;;5.40;;
3613;SDS011;1821;50.936;6.854;2023-02-01T04:51:56;11.80;;;5.22;;
3613;SDS011;1821;50.936;6.854;2023-02-01T04:52:38;13.65;;;5.40;;
3613;SDS011;1821;50.936;6.854;2023-02-01T04:53:20;13.80;;;5.50;;
3613;SDS011;1821;50.936;6.854;2023-02-01T04:54:02;13.88;;;5.68;;
3613;SDS011;1821;50.936;6.854;2023-02-01T04:54:45;11.65;;;5.40;;
3613;SDS011;1821;50.936;6.854;2023-02-01T04:55:26;14.05;;;5.80;;
3613;SDS011;1821;50.936;6.854;2023-02-01T04:56:09;19.98;;;6.20;;
3613;SDS011;1821;50.936;6.854;2023-02-01T04:56:51;23.02;;;6.32;;
3613;SDS011;1821;50.936;6.854;2023-02-01T04:57:32;16.10;;;6.88;;
3613;SDS011;1821;50.936;6.854;2023-02-01T04:58:14;15.75;;;6.10;;
3613;SDS011;1821;50.936;6.854;2023-02-01T04:58:56;15.73;;;5.50;;
3613;SDS011;1821;50.936;6.854;2023-02-01T04:59:39;19.13;;;6.90;;
3613;SDS011;1821;50.936;6.854;2023-02-01T05:00:21;20.15;;;6.20;;
3613;SDS011;1821;50.936;6.854;2023-02-01T05:01:03;19.35;;;5.60;;
3613;SDS011;1821;50.936;6.854;2023-02-01T05:01:46;17.30;;;5.95;;
3613;SDS011;1821;50.936;6.854;2023-02-01T05:02:29;17.15;;;6.75;;
3613;SDS011;1821;50.936;6.854;2023-02-01T05:03:13;13.15;;;5.80;;
3613;SDS011;1821;50.936;6.854;2023-02-01T05:03:57;12.60;;;5.10;;
3613;SDS011;1821;50.936;6.854;2023-02-01T05:04:39;12.63;;;5.15;;
3613;SDS011;1821;50.936;6.854;2023-02-01T05:05:21;12.88;;;5.38;;
3613;SDS011;1821;50.936;6.854;2023-02-01T05:06:03;13.63;;;5.60;;
3613;SDS011;1821;50.936;6.854;2023-02-01T05:06:45;16.53;;;5.97;;
3613;SDS011;1821;50.936;6.854;2023-02-01T05:07:27;20.20;;;5.65;;
3613;SDS011;1821;50.936;6.854;2023-02-01T05:08:09;18.33;;;5.63;;
3613;SDS011;1821;50.936;6.854;2023-02-01T05:08:51;15.57;;;5.10;;
3613;SDS011;1821;50.936;6.854;2023-02-01T05:09:33;18.48;;;5.70;;
3613;SDS011;1821;50.936;6.854;2023-02-01T05:10:15;15.40;;;5.70;;
3613;SDS011;1821;50.936;6.854;2023-02-01T05:10:57;15.00;;;6.00;;
3613;SDS011;1821;50.936;6.854;2023-02-01T05:11:40;13.25;;;5.32;;
3613;SDS011;1821;50.936;6.854;2023-02-01T05:12:42;17.88;;;5.63;;